Time,TemperatureF,DewpointF,PressureIn,WindDirection,WindDirectionDegrees,WindSpeedMPH,WindSpeedGustMPH,Humidity,HourlyPrecipIn,Conditions,Clouds,dailyrainin,SolarRadiationWatts/m^2,SoftwareType,DateUTC
2013-03-08 00:00:00,21.0,19.1,30.40,ENE,74,1.0,5.0,92,0.00,,,0.00,0,WeatherHawk,2013-03-08 06:00:00,
2013-03-08 00:05:00,19.9,17.7,30.41,ESE,119,0.0,4.0,91,0.00,,,0.00,0,WeatherHawk,2013-03-08 06:05:00,
2013-03-08 00:10:00,20.2,18.7,30.41,ESE,119,0.0,4.0,94,0.00,,,0.00,0,WeatherHawk,2013-03-08 06:10:00,
2013-03-08 00:15:00,19.6,17.9,30.41,ESE,119,0.0,3.0,93,0.00,,,0.00,0,WeatherHawk,2013-03-08 06:15:00,
2013-03-08 00:20:00,19.1,18.2,30.41,ESE,119,0.0,3.0,96,0.00,,,0.00,0,WeatherHawk,2013-03-08 06:20:00,
2013-03-08 00:25:00,17.2,16.5,30.42,ESE,119,0.0,0.0,97,0.00,,,0.00,0,WeatherHawk,2013-03-08 06:25:00,
2013-03-08 00:30:00,16.0,15.1,30.42,ESE,119,0.0,0.0,96,0.00,,,0.00,0,WeatherHawk,2013-03-08 06:30:00,
2013-03-08 00:35:00,16.6,16.1,30.42,ESE,119,0.0,0.0,98,0.00,,,0.00,0,WeatherHawk,2013-03-08 06:35:00,
2013-03-08 00:40:00,17.4,17.4,30.42,ESE,119,0.0,0.0,100,0.00,,,0.00,0,WeatherHawk,2013-03-08 06:40:00,
2013-03-08 00:45:00,17.5,17.5,30.42,ESE,119,0.0,0.0,100,0.00,,,0.00,0,WeatherHawk,2013-03-08 06:45:00,
2013-03-08 00:50:00,17.4,17.4,30.42,ESE,119,0.0,0.0,100,0.00,,,0.00,0,WeatherHawk,2013-03-08 06:50:00,
2013-03-08 00:55:00,18.2,18.2,30.42,ESE,119,0.0,0.0,100,0.00,,,0.00,0,WeatherHawk,2013-03-08 06:55:00,
2013-03-08 01:00:00,15.6,15.6,30.42,ESE,119,0.0,0.0,100,0.00,,,0.00,0,WeatherHawk,2013-03-08 07:00:00,
2013-03-08 01:05:00,17.4,17.4,30.42,ESE,119,0.0,0.0,100,0.00,,,0.00,0,WeatherHawk,2013-03-08 07:05:00,
2013-03-08 01:10:00,14.6,14.6,30.42,ESE,119,0.0,-999.0,100,0.00,,,0.00,0,WeatherHawk,2013-03-08 07:10:00,
2013-03-08 01:15:00,13.9,13.9,30.42,ESE,119,0.0,0.0,100,0.00,,,0.00,0,WeatherHawk,2013-03-08 07:15:00,
2013-03-08 01:20:00,14.4,14.4,30.43,ESE,119,0.0,0.0,100,0.00,,,0.00,0,WeatherHawk,2013-03-08 07:20:00,
2013-03-08 01:25:00,14.4,14.4,30.43,ESE,119,0.0,0.0,100,0.00,,,0.00,0,WeatherHawk,2013-03-08 07:25:00,
2013-03-08 01:30:00,13.1,13.1,30.43,ESE,119,0.0,0.0,100,0.00,,,0.00,0,WeatherHawk,2013-03-08 07:30:00,
2013-03-08 01:35:00,13.1,13.1,30.43,ESE,119,0.0,0.0,100,0.00,,,0.00,0,WeatherHawk,2013-03-08 07:35:00,
2013-03-08 01:40:00,13.8,13.8,30.44,ESE,119,0.0,0.0,100,0.00,,,0.00,1,WeatherHawk,2013-03-08 07:40:00,
2013-03-08 01:45:00,14.3,14.3,30.44,ESE,119,0.0,0.0,100,0.00,,,0.00,0,WeatherHawk,2013-03-08 07:45:00,
2013-03-08 01:50:00,13.6,13.6,30.44,ESE,119,0.0,0.0,100,0.00,,,0.00,0,WeatherHawk,2013-03-08 07:50:00,
2013-03-08 01:55:00,12.7,12.7,30.44,ESE,119,0.0,0.0,100,0.00,,,0.00,0,WeatherHawk,2013-03-08 07:55:00,
2013-03-08 02:00:00,14.2,14.2,30.44,ESE,119,0.0,0.0,100,0.00,,,0.00,0,WeatherHawk,2013-03-08 08:00:00,
2013-03-08 02:05:00,14.0,14.0,30.44,ESE,119,0.0,0.0,100,0.00,,,0.00,0,WeatherHawk,2013-03-08 08:05:00,
2013-03-08 02:10:00,12.5,12.5,30.43,ESE,119,0.0,0.0,100,0.00,,,0.00,0,WeatherHawk,2013-03-08 08:10:00,
2013-03-08 02:15:00,13.6,13.6,30.43,ESE,119,0.0,0.0,100,0.00,,,0.00,0,WeatherHawk,2013-03-08 08:15:00,
2013-03-08 02:20:00,13.6,13.6,30.43,ESE,120,0.0,0.0,100,0.00,,,0.00,1,WeatherHawk,2013-03-08 08:20:00,
2013-03-08 02:25:00,12.2,12.2,30.43,ESE,119,0.0,0.0,100,0.00,,,0.00,0,WeatherHawk,2013-03-08 08:25:00,
2013-03-08 02:30:00,13.1,13.1,30.43,ESE,119,0.0,0.0,100,0.00,,,0.00,0,WeatherHawk,2013-03-08 08:30:00,
2013-03-08 02:35:00,14.0,14.0,30.43,ESE,119,0.0,0.0,100,0.00,,,0.00,0,WeatherHawk,2013-03-08 08:35:00,
2013-03-08 02:40:00,14.7,14.7,30.43,ESE,119,0.0,0.0,100,0.00,,,0.00,0,WeatherHawk,2013-03-08 08:40:00,
2013-03-08 02:45:00,13.2,13.2,30.43,ESE,119,0.0,0.0,100,0.00,,,0.00,0,WeatherHawk,2013-03-08 08:45:00,
2013-03-08 02:50:00,15.0,15.0,30.42,ESE,119,0.0,0.0,100,0.00,,,0.00,0,WeatherHawk,2013-03-08 08:50:00,
2013-03-08 02:55:00,17.1,17.1,30.42,ESE,119,0.0,0.0,100,0.00,,,0.00,0,WeatherHawk,2013-03-08 08:55:00,
2013-03-08 03:00:00,14.3,14.3,30.42,ESE,119,0.0,0.0,100,0.00,,,0.00,0,WeatherHawk,2013-03-08 09:00:00,
2013-03-08 03:05:00,14.1,14.1,30.42,ESE,119,0.0,0.0,100,0.00,,,0.00,0,WeatherHawk,2013-03-08 09:05:00,
2013-03-08 03:10:00,16.2,16.2,30.42,SSW,194,0.0,0.0,100,0.00,,,0.00,0,WeatherHawk,2013-03-08 09:10:00,
2013-03-08 03:15:00,13.8,13.8,30.42,SSW,194,0.0,-999.0,100,0.00,,,0.00,0,WeatherHawk,2013-03-08 09:15:00,
2013-03-08 03:20:00,14.2,14.2,30.42,SSW,194,0.0,0.0,100,0.00,,,0.00,0,WeatherHawk,2013-03-08 09:20:00,
2013-03-08 03:25:00,14.4,14.4,30.43,SSW,194,0.0,0.0,100,0.00,,,0.00,0,WeatherHawk,2013-03-08 09:25:00,
2013-03-08 03:30:00,13.7,13.7,30.42,SSW,194,0.0,0.0,100,0.00,,,0.00,0,WeatherHawk,2013-03-08 09:30:00,
2013-03-08 03:35:00,15.8,15.8,30.42,SSW,194,0.0,0.0,100,0.00,,,0.00,0,WeatherHawk,2013-03-08 09:35:00,
2013-03-08 03:40:00,14.5,14.5,30.43,SSW,194,0.0,0.0,100,0.00,,,0.00,0,WeatherHawk,2013-03-08 09:40:00,
2013-03-08 03:45:00,14.8,14.8,30.43,SSW,194,0.0,0.0,100,0.00,,,0.00,0,WeatherHawk,2013-03-08 09:45:00,
2013-03-08 03:50:00,15.1,15.1,30.43,SSW,193,0.0,0.0,100,0.00,,,0.00,0,WeatherHawk,2013-03-08 09:50:00,
2013-03-08 03:55:00,14.7,14.7,30.43,SSW,194,0.0,0.0,100,0.00,,,0.00,0,WeatherHawk,2013-03-08 09:55:00,
2013-03-08 04:00:00,14.0,14.0,30.43,SSW,194,0.0,0.0,100,0.00,,,0.00,0,WeatherHawk,2013-03-08 10:00:00,
2013-03-08 04:05:00,13.7,13.7,30.43,SSW,194,0.0,0.0,100,0.00,,,0.00,0,WeatherHawk,2013-03-08 10:05:00,
2013-03-08 04:10:00,12.3,12.3,30.43,SSW,194,0.0,0.0,100,0.00,,,0.00,0,WeatherHawk,2013-03-08 10:10:00,
2013-03-08 04:15:00,13.7,13.7,30.43,SSW,194,0.0,0.0,100,0.00,,,0.00,1,WeatherHawk,2013-03-08 10:15:00,
2013-03-08 04:20:00,11.8,11.8,30.43,SSW,194,0.0,0.0,100,0.00,,,0.00,0,WeatherHawk,2013-03-08 10:20:00,
2013-03-08 04:25:00,12.8,12.8,30.43,SSW,194,0.0,0.0,100,0.00,,,0.00,0,WeatherHawk,2013-03-08 10:25:00,
2013-03-08 04:30:00,12.3,12.3,30.44,SSW,194,0.0,0.0,100,0.00,,,0.00,0,WeatherHawk,2013-03-08 10:30:00,
2013-03-08 04:35:00,12.4,12.4,30.43,SSW,194,0.0,0.0,100,0.00,,,0.00,1,WeatherHawk,2013-03-08 10:35:00,
2013-03-08 04:40:00,11.9,11.9,30.44,SSW,194,0.0,0.0,100,0.00,,,0.00,0,WeatherHawk,2013-03-08 10:40:00,
2013-03-08 04:45:00,12.0,12.0,30.43,SSW,194,0.0,0.0,100,0.00,,,0.00,0,WeatherHawk,2013-03-08 10:45:00,
2013-03-08 04:50:00,11.8,11.8,30.44,SSW,194,0.0,0.0,100,0.00,,,0.00,0,WeatherHawk,2013-03-08 10:50:00,
2013-03-08 04:55:00,13.2,13.2,30.43,SE,142,0.0,0.0,100,0.00,,,0.00,0,WeatherHawk,2013-03-08 10:55:00,
2013-03-08 05:00:00,13.4,13.4,30.44,SE,143,0.0,0.0,100,0.00,,,0.00,1,WeatherHawk,2013-03-08 11:00:00,
2013-03-08 05:05:00,12.8,12.8,30.43,SE,143,0.0,0.0,100,0.00,,,0.00,0,WeatherHawk,2013-03-08 11:05:00,
2013-03-08 05:10:00,12.5,12.5,30.43,SE,142,0.0,0.0,100,0.00,,,0.00,1,WeatherHawk,2013-03-08 11:10:00,
2013-03-08 05:15:00,12.3,12.3,30.42,SE,143,0.0,1.0,100,0.00,,,0.00,0,WeatherHawk,2013-03-08 11:15:00,
2013-03-08 05:20:00,12.0,12.0,30.43,SE,142,0.0,1.0,100,0.00,,,0.00,1,WeatherHawk,2013-03-08 11:20:00,
2013-03-08 05:25:00,11.4,11.4,30.43,SE,143,0.0,0.0,100,0.00,,,0.00,0,WeatherHawk,2013-03-08 11:25:00,
2013-03-08 05:30:00,10.9,10.9,30.43,SE,143,0.0,0.0,100,0.00,,,0.00,0,WeatherHawk,2013-03-08 11:30:00,
2013-03-08 05:35:00,10.5,10.5,30.43,SE,143,0.0,0.0,100,0.00,,,0.00,0,WeatherHawk,2013-03-08 11:35:00,
2013-03-08 05:40:00,11.2,11.2,30.43,SE,143,0.0,0.0,100,0.00,,,0.00,0,WeatherHawk,2013-03-08 11:40:00,
2013-03-08 05:45:00,11.1,11.1,30.43,SE,143,0.0,0.0,100,0.00,,,0.00,0,WeatherHawk,2013-03-08 11:45:00,
2013-03-08 05:50:00,11.1,11.1,30.43,SE,143,0.0,0.0,100,0.00,,,0.00,0,WeatherHawk,2013-03-08 11:50:00,
2013-03-08 05:55:00,11.4,11.4,30.43,SE,143,0.0,1.0,100,0.00,,,0.00,0,WeatherHawk,2013-03-08 11:55:00,
2013-03-08 06:00:00,11.4,11.4,30.43,SE,143,0.0,1.0,100,0.00,,,0.00,0,WeatherHawk,2013-03-08 12:00:00,
2013-03-08 06:05:00,10.8,10.8,30.43,South,169,0.0,1.0,100,0.00,,,0.00,0,WeatherHawk,2013-03-08 12:05:00,
2013-03-08 06:10:00,10.1,10.1,30.43,South,169,0.0,1.0,100,0.00,,,0.00,0,WeatherHawk,2013-03-08 12:10:00,
2013-03-08 06:15:00,11.4,11.4,30.43,South,169,0.0,1.0,100,0.00,,,0.00,1,WeatherHawk,2013-03-08 12:15:00,
2013-03-08 06:20:00,11.4,11.4,30.44,South,169,0.0,1.0,100,0.00,,,0.00,4,WeatherHawk,2013-03-08 12:20:00,
2013-03-08 06:25:00,11.5,11.5,30.43,SSE,159,0.0,0.0,100,0.00,,,0.00,5,WeatherHawk,2013-03-08 12:25:00,
2013-03-08 06:30:00,11.5,11.5,30.43,SSE,162,0.0,0.0,100,0.00,,,0.00,9,WeatherHawk,2013-03-08 12:30:00,
2013-03-08 06:35:00,11.4,11.4,30.44,SSE,162,0.0,1.0,100,0.00,,,0.00,13,WeatherHawk,2013-03-08 12:35:00,
2013-03-08 06:40:00,11.0,11.0,30.44,SSE,162,0.0,1.0,100,0.00,,,0.00,18,WeatherHawk,2013-03-08 12:40:00,
2013-03-08 06:45:00,12.5,12.5,30.44,SSE,157,0.0,2.0,100,0.00,,,0.00,23,WeatherHawk,2013-03-08 12:45:00,
2013-03-08 06:50:00,13.2,13.2,30.44,SSE,157,0.0,2.0,100,0.00,,,0.00,29,WeatherHawk,2013-03-08 12:50:00,
2013-03-08 06:55:00,13.7,13.7,30.44,SSE,157,0.0,0.0,100,0.00,,,0.00,34,WeatherHawk,2013-03-08 12:55:00,
2013-03-08 07:00:00,13.5,13.5,30.44,SSE,157,0.0,0.0,100,0.00,,,0.00,34,WeatherHawk,2013-03-08 13:00:00,
2013-03-08 07:05:00,14.4,14.4,30.44,SSE,157,0.0,1.0,100,0.00,,,0.00,44,WeatherHawk,2013-03-08 13:05:00,
2013-03-08 07:10:00,16.6,16.6,30.44,SSE,157,0.0,1.0,100,0.00,,,0.00,49,WeatherHawk,2013-03-08 13:10:00,
2013-03-08 07:15:00,18.0,18.0,30.44,SSE,157,0.0,1.0,100,0.00,,,0.00,52,WeatherHawk,2013-03-08 13:15:00,
2013-03-08 07:20:00,18.2,18.2,30.45,SSE,157,0.0,1.0,100,0.00,,,0.00,58,WeatherHawk,2013-03-08 13:20:00,
2013-03-08 07:25:00,18.7,18.7,30.45,SSE,158,0.0,-999.0,100,0.00,,,0.00,65,WeatherHawk,2013-03-08 13:25:00,
2013-03-08 07:30:00,19.4,19.4,30.45,SSE,161,1.0,0.0,100,0.00,,,0.00,74,WeatherHawk,2013-03-08 13:30:00,
2013-03-08 07:35:00,20.4,20.2,30.45,SSE,166,0.0,0.0,99,0.00,,,0.00,84,WeatherHawk,2013-03-08 13:35:00,
2013-03-08 07:40:00,21.4,20.4,30.44,SSE,159,1.0,0.0,96,0.00,,,0.00,94,WeatherHawk,2013-03-08 13:40:00,
2013-03-08 07:45:00,22.0,20.6,30.45,SSE,159,0.0,2.0,94,0.00,,,0.00,105,WeatherHawk,2013-03-08 13:45:00,
2013-03-08 07:50:00,20.9,18.7,30.44,SSE,162,0.0,2.0,91,0.00,,,0.00,117,WeatherHawk,2013-03-08 13:50:00,
2013-03-08 07:55:00,22.3,19.8,30.44,SSE,162,0.0,2.0,90,0.00,,,0.00,128,WeatherHawk,2013-03-08 13:55:00,
2013-03-08 08:00:00,22.1,19.1,30.45,SW,217,0.0,2.0,88,0.00,,,0.00,139,WeatherHawk,2013-03-08 14:00:00,
2013-03-08 08:05:00,24.5,21.5,30.44,South,176,0.0,2.0,88,0.00,,,0.00,153,WeatherHawk,2013-03-08 14:05:00,
2013-03-08 08:10:00,25.5,21.4,30.44,South,176,0.0,2.0,84,0.00,,,0.00,164,WeatherHawk,2013-03-08 14:10:00,
2013-03-08 08:15:00,22.1,16.9,30.44,South,176,2.0,0.0,80,0.00,,,0.00,184,WeatherHawk,2013-03-08 14:15:00,
2013-03-08 08:20:00,22.8,16.4,30.44,South,173,2.0,0.0,76,0.00,,,0.00,191,WeatherHawk,2013-03-08 14:20:00,
2013-03-08 08:25:00,21.7,15.6,30.44,SSE,156,5.0,5.0,77,0.00,,,0.00,219,WeatherHawk,2013-03-08 14:25:00,
2013-03-08 08:30:00,22.7,16.9,30.45,South,186,4.0,4.0,78,0.00,,,0.00,254,WeatherHawk,2013-03-08 14:30:00,
2013-03-08 08:35:00,22.9,17.4,30.44,SSE,167,3.0,4.0,79,0.00,,,0.00,289,WeatherHawk,2013-03-08 14:35:00,
2013-03-08 08:40:00,22.4,16.6,30.46,SSE,159,4.0,4.0,78,0.00,,,0.00,320,WeatherHawk,2013-03-08 14:40:00,
2013-03-08 08:45:00,23.4,17.2,30.45,SSE,157,5.0,5.0,77,0.00,,,0.00,347,WeatherHawk,2013-03-08 14:45:00,
2013-03-08 08:50:00,24.2,17.7,30.45,SE,144,2.0,5.0,76,0.00,,,0.00,369,WeatherHawk,2013-03-08 14:50:00,
2013-03-08 08:55:00,24.0,16.9,30.44,SE,146,4.0,5.0,74,0.00,,,0.00,362,WeatherHawk,2013-03-08 14:55:00,
2013-03-08 09:00:00,25.2,17.4,30.44,SE,143,3.0,5.0,72,0.00,,,0.00,405,WeatherHawk,2013-03-08 15:00:00,
2013-03-08 09:05:00,24.3,15.9,30.44,SE,144,4.0,6.0,70,0.00,,,0.00,389,WeatherHawk,2013-03-08 15:05:00,
2013-03-08 09:10:00,25.0,16.6,30.45,SSE,160,5.0,6.0,70,0.00,,,0.00,431,WeatherHawk,2013-03-08 15:10:00,
2013-03-08 09:15:00,25.8,17.4,30.43,SSE,150,3.0,6.0,70,0.00,,,0.00,445,WeatherHawk,2013-03-08 15:15:00,
2013-03-08 09:20:00,26.1,17.0,30.43,SSE,165,5.0,6.0,68,0.00,,,0.00,460,WeatherHawk,2013-03-08 15:20:00,
2013-03-08 09:25:00,25.5,16.1,30.44,SSE,167,5.0,-999.0,67,0.00,,,0.00,439,WeatherHawk,2013-03-08 15:25:00,
2013-03-08 09:30:00,26.3,15.8,30.43,South,171,7.0,-999.0,64,0.00,,,0.00,485,WeatherHawk,2013-03-08 15:30:00,
2013-03-08 09:35:00,26.7,15.4,30.44,SE,135,4.0,7.0,62,0.00,,,0.00,500,WeatherHawk,2013-03-08 15:35:00,
2013-03-08 09:40:00,28.1,15.7,30.44,South,177,4.0,7.0,59,0.00,,,0.00,509,WeatherHawk,2013-03-08 15:40:00,
2013-03-08 09:45:00,27.5,13.9,30.45,SSE,165,6.0,7.0,56,0.00,,,0.00,448,WeatherHawk,2013-03-08 15:45:00,
2013-03-08 09:50:00,29.8,14.8,30.45,South,173,5.0,7.0,53,0.00,,,0.00,568,WeatherHawk,2013-03-08 15:50:00,
2013-03-08 09:55:00,30.0,14.6,30.45,SE,142,3.0,7.0,52,0.00,,,0.00,578,WeatherHawk,2013-03-08 15:55:00,
2013-03-08 10:00:00,29.5,13.6,30.44,SE,138,4.0,7.0,51,0.00,,,0.00,501,WeatherHawk,2013-03-08 16:00:00,
2013-03-08 10:05:00,30.0,12.7,30.44,ESE,120,4.0,6.0,48,0.00,,,0.00,439,WeatherHawk,2013-03-08 16:05:00,
2013-03-08 10:10:00,30.9,14.0,30.43,South,174,6.0,6.0,49,0.00,,,0.00,552,WeatherHawk,2013-03-08 16:10:00,
2013-03-08 10:15:00,31.2,13.8,30.44,SE,133,5.0,7.0,48,0.00,,,0.00,650,WeatherHawk,2013-03-08 16:15:00,
2013-03-08 10:20:00,30.6,12.8,30.43,SSE,157,6.0,7.0,47,0.00,,,0.00,567,WeatherHawk,2013-03-08 16:20:00,
2013-03-08 10:25:00,31.1,13.7,30.43,SE,135,4.0,7.0,48,0.00,,,0.00,629,WeatherHawk,2013-03-08 16:25:00,
2013-03-08 10:30:00,32.8,14.9,30.43,SSE,161,6.0,7.0,47,0.00,,,0.00,654,WeatherHawk,2013-03-08 16:30:00,
2013-03-08 10:35:00,32.2,14.2,30.44,SSE,166,6.0,7.0,47,0.00,,,0.00,606,WeatherHawk,2013-03-08 16:35:00,
2013-03-08 10:40:00,32.3,14.4,30.43,South,183,6.0,0.0,47,0.00,,,0.00,621,WeatherHawk,2013-03-08 16:40:00,
2013-03-08 10:46:00,32.6,14.1,30.43,SSE,166,7.0,7.0,46,0.00,,,0.00,614,WeatherHawk,2013-03-08 16:46:00,
2013-03-08 10:51:00,33.4,14.4,30.43,SSE,163,10.0,11.0,45,0.00,,,0.00,635,WeatherHawk,2013-03-08 16:51:00,
2013-03-08 10:56:00,33.1,14.6,30.43,SSE,164,9.0,11.0,46,0.00,,,0.00,635,WeatherHawk,2013-03-08 16:56:00,
2013-03-08 11:01:00,33.0,15.0,30.42,South,184,8.0,10.0,47,0.00,,,0.00,619,WeatherHawk,2013-03-08 17:01:00,
2013-03-08 11:06:00,33.2,15.1,30.42,SE,137,8.0,10.0,47,0.00,,,0.00,687,WeatherHawk,2013-03-08 17:06:00,
2013-03-08 11:11:00,32.9,14.4,30.42,South,175,11.0,12.0,46,0.00,,,0.00,687,WeatherHawk,2013-03-08 17:11:00,
2013-03-08 11:16:00,32.9,14.9,30.42,SSE,160,7.0,12.0,47,0.00,,,0.00,617,WeatherHawk,2013-03-08 17:16:00,
2013-03-08 11:22:00,32.8,14.8,30.43,SSE,165,9.0,12.0,47,0.00,,,0.00,692,WeatherHawk,2013-03-08 17:22:00,
2013-03-08 11:28:00,33.2,14.7,30.43,SSE,166,6.0,12.0,46,0.00,,,0.00,674,WeatherHawk,2013-03-08 17:28:00,
2013-03-08 11:33:00,35.3,16.1,30.43,South,179,5.0,13.0,45,0.00,,,0.00,698,WeatherHawk,2013-03-08 17:33:00,
2013-03-08 11:39:00,33.1,14.1,30.42,SSE,150,10.0,13.0,45,0.00,,,0.00,624,WeatherHawk,2013-03-08 17:39:00,
2013-03-08 11:44:00,33.3,13.8,30.43,South,185,13.0,13.0,44,0.00,,,0.00,701,WeatherHawk,2013-03-08 17:44:00,
2013-03-08 11:49:00,34.0,13.9,30.43,SSE,164,8.0,11.0,43,0.00,,,0.00,691,WeatherHawk,2013-03-08 17:49:00,
2013-03-08 11:54:00,33.5,14.0,30.42,South,172,10.0,13.0,44,0.00,,,0.00,687,WeatherHawk,2013-03-08 17:54:00,
2013-03-08 11:59:00,34.2,14.5,30.42,SSE,152,8.0,13.0,44,0.00,,,0.00,672,WeatherHawk,2013-03-08 17:59:00,
2013-03-08 12:04:00,34.2,14.0,30.42,SSE,157,10.0,13.0,43,0.00,,,0.00,676,WeatherHawk,2013-03-08 18:04:00,
2013-03-08 12:09:00,34.7,14.0,30.41,South,171,7.0,13.0,42,0.00,,,0.00,689,WeatherHawk,2013-03-08 18:09:00,
2013-03-08 12:14:00,35.2,14.9,30.41,South,186,8.0,13.0,43,0.00,,,0.00,685,WeatherHawk,2013-03-08 18:14:00,
2013-03-08 12:19:00,34.6,13.9,30.41,SSE,162,10.0,13.0,42,0.00,,,0.00,682,WeatherHawk,2013-03-08 18:19:00,
2013-03-08 12:24:00,34.9,14.7,30.41,SSE,163,11.0,12.0,43,0.00,,,0.00,677,WeatherHawk,2013-03-08 18:24:00,
2013-03-08 12:29:00,34.8,14.6,30.41,South,179,11.0,12.0,43,0.00,,,0.00,677,WeatherHawk,2013-03-08 18:29:00,
2013-03-08 12:34:00,34.6,13.9,30.40,SSE,167,10.0,12.0,42,0.00,,,0.00,672,WeatherHawk,2013-03-08 18:34:00,
2013-03-08 12:39:00,35.0,14.2,30.41,SSE,164,6.0,12.0,42,0.00,,,0.00,670,WeatherHawk,2013-03-08 18:39:00,
2013-03-08 12:44:00,36.4,14.9,30.41,South,179,7.0,13.0,41,0.00,,,0.00,671,WeatherHawk,2013-03-08 18:44:00,
2013-03-08 12:49:00,35.1,13.2,30.40,South,183,8.0,13.0,40,0.00,,,0.00,666,WeatherHawk,2013-03-08 18:49:00,
2013-03-08 12:54:00,35.2,12.8,30.40,SSW,202,10.0,11.0,39,0.00,,,0.00,621,WeatherHawk,2013-03-08 18:54:00,
2013-03-08 12:59:00,35.8,13.9,30.40,South,177,6.0,11.0,40,0.00,,,0.00,662,WeatherHawk,2013-03-08 18:59:00,
2013-03-08 13:04:00,35.1,13.2,30.40,SSE,160,9.0,11.0,40,0.00,,,0.00,654,WeatherHawk,2013-03-08 19:04:00,
2013-03-08 13:09:00,35.5,13.6,30.39,South,178,7.0,11.0,40,0.00,,,0.00,642,WeatherHawk,2013-03-08 19:09:00,
2013-03-08 13:14:00,35.8,13.3,30.39,South,170,8.0,11.0,39,0.00,,,0.00,640,WeatherHawk,2013-03-08 19:14:00,
2013-03-08 13:19:00,36.7,14.7,30.38,SSW,198,5.0,11.0,40,0.00,,,0.00,638,WeatherHawk,2013-03-08 19:19:00,
2013-03-08 13:24:00,37.0,13.7,30.38,SSW,199,6.0,10.0,38,0.00,,,0.00,633,WeatherHawk,2013-03-08 19:24:00,
2013-03-08 13:29:00,36.2,13.6,30.38,South,185,6.0,10.0,39,0.00,,,0.00,624,WeatherHawk,2013-03-08 19:29:00,
2013-03-08 13:34:00,35.5,13.0,30.37,SSE,164,9.0,11.0,39,0.00,,,0.00,599,WeatherHawk,2013-03-08 19:34:00,
2013-03-08 13:39:00,36.3,14.3,30.38,South,171,7.0,11.0,40,0.00,,,0.00,613,WeatherHawk,2013-03-08 19:39:00,
2013-03-08 13:44:00,35.8,13.9,30.37,South,174,7.0,9.0,40,0.00,,,0.00,595,WeatherHawk,2013-03-08 19:44:00,
2013-03-08 13:49:00,36.0,14.0,30.37,South,176,7.0,9.0,40,0.00,,,0.00,581,WeatherHawk,2013-03-08 19:49:00,
2013-03-08 13:54:00,35.8,14.4,30.36,South,180,5.0,10.0,41,0.00,,,0.00,564,WeatherHawk,2013-03-08 19:54:00,
2013-03-08 13:59:00,35.5,13.6,30.37,SSE,162,7.0,10.0,40,0.00,,,0.00,557,WeatherHawk,2013-03-08 19:59:00,
2013-03-08 14:04:00,35.9,15.1,30.37,South,188,5.0,10.0,42,0.00,,,0.00,562,WeatherHawk,2013-03-08 20:04:00,
2013-03-08 14:09:00,35.8,14.9,30.37,South,180,7.0,10.0,42,0.00,,,0.00,545,WeatherHawk,2013-03-08 20:09:00,
2013-03-08 14:14:00,36.2,15.3,30.37,SSE,147,10.0,11.0,42,0.00,,,0.00,543,WeatherHawk,2013-03-08 20:14:00,
2013-03-08 14:19:00,35.6,14.8,30.37,SSE,156,7.0,0.0,42,0.00,,,0.00,527,WeatherHawk,2013-03-08 20:19:00,
2013-03-08 14:25:00,35.0,14.8,30.37,SSE,164,9.0,11.0,43,0.00,,,0.00,451,WeatherHawk,2013-03-08 20:25:00,
2013-03-08 14:31:00,35.7,15.5,30.36,SSE,161,5.0,10.0,43,0.00,,,0.00,489,WeatherHawk,2013-03-08 20:31:00,
2013-03-08 14:36:00,35.8,15.0,30.37,SSE,168,8.0,10.0,42,0.00,,,0.00,497,WeatherHawk,2013-03-08 20:36:00,
2013-03-08 14:42:00,36.1,15.8,30.36,SSE,164,6.0,10.0,43,0.00,,,0.00,477,WeatherHawk,2013-03-08 20:42:00,
2013-03-08 14:47:00,36.2,15.9,30.37,SSE,168,5.0,10.0,43,0.00,,,0.00,485,WeatherHawk,2013-03-08 20:47:00,
2013-03-08 14:52:00,35.7,15.5,30.36,South,171,7.0,9.0,43,0.00,,,0.00,454,WeatherHawk,2013-03-08 20:52:00,
2013-03-08 14:58:00,36.1,16.3,30.36,SSE,157,6.0,9.0,44,0.00,,,0.00,444,WeatherHawk,2013-03-08 20:58:00,
2013-03-08 15:03:00,35.4,15.7,30.36,SSE,154,9.0,12.0,44,0.00,,,0.00,414,WeatherHawk,2013-03-08 21:03:00,
2013-03-08 15:08:00,36.0,16.8,30.36,South,170,5.0,12.0,45,0.00,,,0.00,421,WeatherHawk,2013-03-08 21:08:00,
2013-03-08 15:14:00,35.8,16.5,30.37,South,179,5.0,10.0,45,0.00,,,0.00,402,WeatherHawk,2013-03-08 21:14:00,
2013-03-08 15:19:00,35.6,16.4,30.35,South,177,6.0,10.0,45,0.00,,,0.00,382,WeatherHawk,2013-03-08 21:19:00,
2013-03-08 15:24:00,35.8,16.6,30.35,SSE,156,7.0,10.0,45,0.00,,,0.00,388,WeatherHawk,2013-03-08 21:24:00,
2013-03-08 15:29:00,35.3,16.1,30.35,South,176,6.0,10.0,45,0.00,,,0.00,342,WeatherHawk,2013-03-08 21:29:00,
2013-03-08 15:36:00,35.5,16.2,30.35,South,170,8.0,11.0,45,0.00,,,0.00,329,WeatherHawk,2013-03-08 21:36:00,
2013-03-08 15:42:00,35.6,17.4,30.34,SSE,158,6.0,9.0,47,0.00,,,0.00,333,WeatherHawk,2013-03-08 21:42:00,
2013-03-08 15:48:00,35.5,17.8,30.34,SSE,157,5.0,9.0,48,0.00,,,0.00,301,WeatherHawk,2013-03-08 21:48:00,
2013-03-08 15:54:00,35.4,17.7,30.34,South,169,7.0,10.0,48,0.00,,,0.00,287,WeatherHawk,2013-03-08 21:54:00,
2013-03-08 15:59:00,34.9,17.2,30.34,SE,145,11.0,11.0,48,0.00,,,0.00,283,WeatherHawk,2013-03-08 21:59:00,
2013-03-08 16:04:00,35.1,17.4,30.33,SSE,166,8.0,9.0,48,0.00,,,0.00,225,WeatherHawk,2013-03-08 22:04:00,
2013-03-08 16:09:00,35.2,18.0,30.33,South,178,4.0,9.0,49,0.00,,,0.00,240,WeatherHawk,2013-03-08 22:09:00,
2013-03-08 16:14:00,34.9,17.7,30.33,SSE,160,7.0,12.0,49,0.00,,,0.00,210,WeatherHawk,2013-03-08 22:14:00,
2013-03-08 16:19:00,34.5,17.8,30.34,South,178,7.0,12.0,50,0.00,,,0.00,198,WeatherHawk,2013-03-08 22:19:00,
2013-03-08 16:24:00,34.8,18.1,30.34,South,180,6.0,11.0,50,0.00,,,0.00,163,WeatherHawk,2013-03-08 22:24:00,
2013-03-08 16:29:00,35.0,18.2,30.34,South,169,5.0,11.0,50,0.00,,,0.00,192,WeatherHawk,2013-03-08 22:29:00,
2013-03-08 16:34:00,34.7,18.5,30.34,SSE,159,7.0,8.0,51,0.00,,,0.00,157,WeatherHawk,2013-03-08 22:34:00,
2013-03-08 16:39:00,34.7,18.4,30.34,SSE,162,5.0,8.0,51,0.00,,,0.00,147,WeatherHawk,2013-03-08 22:39:00,
2013-03-08 16:44:00,34.6,18.8,30.35,South,171,4.0,-999.0,52,0.00,,,0.00,151,WeatherHawk,2013-03-08 22:44:00,
2013-03-08 16:50:00,34.7,18.9,30.34,South,173,5.0,0.0,52,0.00,,,0.00,125,WeatherHawk,2013-03-08 22:50:00,
2013-03-08 16:55:00,34.5,19.1,30.35,South,173,3.0,8.0,53,0.00,,,0.00,76,WeatherHawk,2013-03-08 22:55:00,
2013-03-08 17:00:00,33.8,18.5,30.35,South,174,2.0,8.0,53,0.00,,,0.00,64,WeatherHawk,2013-03-08 23:00:00,
2013-03-08 17:06:00,34.1,19.2,30.34,South,170,4.0,8.0,54,0.00,,,0.00,81,WeatherHawk,2013-03-08 23:06:00,
2013-03-08 17:11:00,34.1,19.2,30.36,South,191,2.0,6.0,54,0.00,,,0.00,54,WeatherHawk,2013-03-08 23:11:00,
2013-03-08 17:16:00,34.0,19.5,30.35,SSW,202,4.0,6.0,55,0.00,,,0.00,35,WeatherHawk,2013-03-08 23:16:00,
2013-03-08 17:21:00,33.4,19.4,30.35,South,171,3.0,6.0,56,0.00,,,0.00,32,WeatherHawk,2013-03-08 23:21:00,
2013-03-08 17:26:00,33.4,19.8,30.35,SSE,166,2.0,6.0,57,0.00,,,0.00,28,WeatherHawk,2013-03-08 23:26:00,
2013-03-08 17:31:00,32.9,19.4,30.35,SSE,165,0.0,6.0,57,0.00,,,0.00,26,WeatherHawk,2013-03-08 23:31:00,
2013-03-08 17:36:00,32.1,19.4,30.35,SSE,165,1.0,6.0,59,0.00,,,0.00,23,WeatherHawk,2013-03-08 23:36:00,
2013-03-08 17:41:00,33.1,20.8,30.35,South,175,1.0,5.0,60,0.00,,,0.00,18,WeatherHawk,2013-03-08 23:41:00,
2013-03-08 17:46:00,33.2,20.8,30.34,South,177,4.0,5.0,60,0.00,,,0.00,13,WeatherHawk,2013-03-08 23:46:00,
2013-03-08 17:51:00,32.5,20.6,30.34,SSE,168,2.0,4.0,61,0.00,,,0.00,8,WeatherHawk,2013-03-08 23:51:00,
2013-03-08 17:57:00,31.7,20.6,30.34,SSE,168,0.0,4.0,63,0.00,,,0.00,1,WeatherHawk,2013-03-08 23:57:00,
2013-03-08 18:02:00,31.9,21.1,30.35,SSE,168,0.0,4.0,64,0.00,,,0.00,0,WeatherHawk,2013-03-09 00:02:00,
2013-03-08 18:07:00,31.6,21.6,30.34,SSE,168,0.0,4.0,66,0.00,,,0.00,1,WeatherHawk,2013-03-09 00:07:00,
2013-03-08 18:13:00,30.5,20.9,30.35,SSE,168,0.0,2.0,67,0.00,,,0.00,0,WeatherHawk,2013-03-09 00:13:00,
2013-03-08 18:18:00,30.4,21.5,30.35,SSE,168,0.0,2.0,69,0.00,,,0.00,0,WeatherHawk,2013-03-09 00:18:00,
2013-03-08 18:23:00,30.8,22.2,30.34,ESE,123,0.0,1.0,70,0.00,,,0.00,0,WeatherHawk,2013-03-09 00:23:00,
2013-03-08 18:28:00,30.7,22.4,30.34,SSE,153,0.0,1.0,71,0.00,,,0.00,0,WeatherHawk,2013-03-09 00:28:00,
2013-03-08 18:34:00,30.3,22.1,30.35,SSE,151,0.0,2.0,71,0.00,,,0.00,0,WeatherHawk,2013-03-09 00:34:00,
2013-03-08 18:39:00,30.3,22.1,30.35,SE,135,4.0,4.0,71,0.00,,,0.00,0,WeatherHawk,2013-03-09 00:39:00,
2013-03-08 18:45:00,29.3,21.1,30.34,SSE,150,0.0,3.0,71,0.00,,,0.00,0,WeatherHawk,2013-03-09 00:45:00,
2013-03-08 18:50:00,30.3,23.6,30.33,East,83,0.0,4.0,76,0.00,,,0.00,0,WeatherHawk,2013-03-09 00:50:00,
2013-03-08 18:55:00,30.1,23.5,30.34,SE,130,0.0,4.0,76,0.00,,,0.00,0,WeatherHawk,2013-03-09 00:55:00,
2013-03-08 19:01:00,28.5,22.0,30.34,SE,130,0.0,0.0,76,0.00,,,0.00,0,WeatherHawk,2013-03-09 01:01:00,
2013-03-08 19:06:00,27.5,21.0,30.34,SE,130,0.0,0.0,76,0.00,,,0.00,0,WeatherHawk,2013-03-09 01:06:00,
2013-03-08 19:11:00,27.3,21.6,30.35,SE,130,0.0,0.0,79,0.00,,,0.00,1,WeatherHawk,2013-03-09 01:11:00,
2013-03-08 19:16:00,26.6,21.0,30.34,SE,130,0.0,0.0,79,0.00,,,0.00,0,WeatherHawk,2013-03-09 01:16:00,
2013-03-08 19:22:00,27.4,23.4,30.35,SE,130,0.0,0.0,85,0.00,,,0.00,0,WeatherHawk,2013-03-09 01:22:00,
2013-03-08 19:27:00,28.1,24.7,30.34,SE,130,0.0,0.0,87,0.00,,,0.00,1,WeatherHawk,2013-03-09 01:27:00,
2013-03-08 19:32:00,26.9,23.0,30.34,SE,130,0.0,0.0,85,0.00,,,0.00,0,WeatherHawk,2013-03-09 01:32:00,
2013-03-08 19:37:00,28.8,25.7,30.34,SE,130,0.0,0.0,88,0.00,,,0.00,1,WeatherHawk,2013-03-09 01:37:00,
2013-03-08 19:42:00,27.1,22.9,30.33,SSE,167,0.0,0.0,84,0.00,,,0.00,1,WeatherHawk,2013-03-09 01:42:00,
2013-03-08 19:47:00,27.6,24.0,30.34,SSE,167,0.0,0.0,86,0.00,,,0.00,0,WeatherHawk,2013-03-09 01:47:00,
2013-03-08 19:53:00,27.1,23.7,30.33,South,183,0.0,2.0,87,0.00,,,0.00,0,WeatherHawk,2013-03-09 01:53:00,
2013-03-08 19:58:00,27.9,24.3,30.33,South,183,2.0,2.0,86,0.00,,,0.00,0,WeatherHawk,2013-03-09 01:58:00,
2013-03-08 20:03:00,26.7,22.8,30.33,South,183,0.0,0.0,85,0.00,,,0.00,0,WeatherHawk,2013-03-09 02:03:00,
2013-03-08 20:08:00,26.8,23.5,30.33,South,183,0.0,0.0,87,0.00,,,0.00,0,WeatherHawk,2013-03-09 02:08:00,
2013-03-08 20:13:00,25.7,22.4,30.33,South,183,0.0,2.0,87,0.00,,,0.00,0,WeatherHawk,2013-03-09 02:13:00,
2013-03-08 20:18:00,25.9,22.9,30.32,South,180,0.0,2.0,88,0.00,,,0.00,0,WeatherHawk,2013-03-09 02:18:00,
2013-03-08 20:23:00,28.2,25.1,30.32,SSE,159,2.0,2.0,88,0.00,,,0.00,0,WeatherHawk,2013-03-09 02:23:00,
2013-03-08 20:29:00,26.6,23.0,30.32,South,169,0.0,1.0,86,0.00,,,0.00,0,WeatherHawk,2013-03-09 02:29:00,
2013-03-08 20:34:00,29.2,26.4,30.31,SSE,164,2.0,4.0,89,0.00,,,0.00,0,WeatherHawk,2013-03-09 02:34:00,
2013-03-08 20:39:00,29.3,25.4,30.31,East,93,1.0,4.0,85,0.00,,,0.00,1,WeatherHawk,2013-03-09 02:39:00,
2013-03-08 20:44:00,28.9,24.2,30.32,SE,141,0.0,3.0,82,0.00,,,0.00,0,WeatherHawk,2013-03-09 02:44:00,
2013-03-08 20:49:00,29.1,24.0,30.31,SE,146,0.0,3.0,81,0.00,,,0.00,0,WeatherHawk,2013-03-09 02:49:00,
2013-03-08 20:54:00,29.2,24.1,30.31,SSE,154,3.0,6.0,81,0.00,,,0.00,1,WeatherHawk,2013-03-09 02:54:00,
2013-03-08 20:59:00,29.0,23.6,30.31,SSE,159,4.0,6.0,80,0.00,,,0.00,1,WeatherHawk,2013-03-09 02:59:00,
2013-03-08 21:04:00,28.4,23.1,30.32,SSE,157,4.0,5.0,80,0.00,,,0.00,0,WeatherHawk,2013-03-09 03:04:00,
2013-03-08 21:09:00,28.9,23.8,30.32,SE,129,4.0,5.0,81,0.00,,,0.00,0,WeatherHawk,2013-03-09 03:09:00,
2013-03-08 21:14:00,28.4,23.1,30.31,SE,142,1.0,5.0,80,0.00,,,0.00,0,WeatherHawk,2013-03-09 03:14:00,
2013-03-08 21:19:00,28.6,22.9,30.31,SSE,148,0.0,5.0,79,0.00,,,0.00,0,WeatherHawk,2013-03-09 03:19:00,
2013-03-08 21:24:00,28.1,22.7,30.31,SSE,149,1.0,4.0,80,0.00,,,0.00,0,WeatherHawk,2013-03-09 03:24:00,
2013-03-08 21:29:00,27.8,22.4,30.31,SE,144,0.0,4.0,80,0.00,,,0.00,1,WeatherHawk,2013-03-09 03:29:00,
2013-03-08 21:35:00,27.2,21.9,30.31,SSE,152,1.0,5.0,80,0.00,,,0.00,0,WeatherHawk,2013-03-09 03:35:00,
2013-03-08 21:40:00,28.0,22.9,30.30,SSE,161,3.0,5.0,81,0.00,,,0.00,0,WeatherHawk,2013-03-09 03:40:00,
2013-03-08 21:45:00,27.9,22.9,30.30,SE,144,3.0,4.0,81,0.00,,,0.00,0,WeatherHawk,2013-03-09 03:45:00,
2013-03-08 21:50:00,27.8,22.7,30.30,SSE,162,4.0,4.0,81,0.00,,,0.00,1,WeatherHawk,2013-03-09 03:50:00,
2013-03-08 21:55:00,27.8,22.7,30.30,SE,146,4.0,5.0,81,0.00,,,0.00,0,WeatherHawk,2013-03-09 03:55:00,
2013-03-08 22:00:00,27.6,22.3,30.30,SSE,161,3.0,5.0,80,0.00,,,0.00,0,WeatherHawk,2013-03-09 04:00:00,
2013-03-08 22:05:00,28.0,22.6,30.29,ESE,110,4.0,5.0,80,0.00,,,0.00,0,WeatherHawk,2013-03-09 04:05:00,
2013-03-08 22:10:00,27.9,22.5,30.29,SE,135,3.0,6.0,80,0.00,,,0.00,0,WeatherHawk,2013-03-09 04:10:00,
2013-03-08 22:15:00,27.3,21.7,30.29,SSE,163,3.0,6.0,79,0.00,,,0.00,0,WeatherHawk,2013-03-09 04:15:00,
2013-03-08 22:20:00,27.8,22.5,30.29,ESE,106,3.0,7.0,80,0.00,,,0.00,1,WeatherHawk,2013-03-09 04:20:00,
2013-03-08 22:25:00,27.9,22.5,30.28,SSE,151,5.0,7.0,80,0.00,,,0.00,0,WeatherHawk,2013-03-09 04:25:00,
2013-03-08 22:30:00,27.9,22.5,30.27,South,173,5.0,6.0,80,0.00,,,0.00,0,WeatherHawk,2013-03-09 04:30:00,
2013-03-08 22:36:00,27.9,22.5,30.27,SE,133,6.0,6.0,80,0.00,,,0.00,0,WeatherHawk,2013-03-09 04:36:00,
2013-03-08 22:41:00,27.6,22.0,30.27,SSE,159,3.0,6.0,79,0.00,,,0.00,0,WeatherHawk,2013-03-09 04:41:00,
2013-03-08 22:46:00,27.3,21.7,30.27,SSW,203,2.0,6.0,79,0.00,,,0.00,0,WeatherHawk,2013-03-09 04:46:00,
2013-03-08 22:51:00,27.5,21.9,30.27,SE,143,5.0,8.0,79,0.00,,,0.00,0,WeatherHawk,2013-03-09 04:51:00,
2013-03-08 22:57:00,27.3,21.7,30.27,SSE,160,3.0,8.0,79,0.00,,,0.00,1,WeatherHawk,2013-03-09 04:57:00,
2013-03-08 23:01:00,27.9,22.5,30.27,SE,134,6.0,0.0,80,0.00,,,0.00,1,WeatherHawk,2013-03-09 05:01:00,
2013-03-08 23:04:00,27.7,22.1,30.27,SE,144,3.0,0.0,79,0.00,,,0.00,0,WeatherHawk,2013-03-09 05:04:00,
2013-03-08 23:10:00,27.8,22.2,30.26,SE,126,4.0,6.0,79,0.00,,,0.00,0,WeatherHawk,2013-03-09 05:10:00,
2013-03-08 23:15:00,27.5,21.6,30.26,SSE,166,6.0,6.0,78,0.00,,,0.00,1,WeatherHawk,2013-03-09 05:15:00,
2013-03-08 23:21:00,27.8,22.2,30.26,SSE,149,4.0,6.0,79,0.00,,,0.00,0,WeatherHawk,2013-03-09 05:21:00,
2013-03-08 23:27:00,28.1,22.5,30.26,SE,139,6.0,6.0,79,0.00,,,0.00,0,WeatherHawk,2013-03-09 05:27:00,
2013-03-08 23:32:00,28.0,22.1,30.26,SSE,153,4.0,7.0,78,0.00,,,0.00,0,WeatherHawk,2013-03-09 05:32:00,
2013-03-08 23:37:00,28.3,22.3,30.26,ESE,113,5.0,7.0,78,0.00,,,0.00,0,WeatherHawk,2013-03-09 05:37:00,
2013-03-08 23:43:00,27.7,21.8,30.26,SSE,155,4.0,8.0,78,0.00,,,0.00,0,WeatherHawk,2013-03-09 05:43:00,
2013-03-08 23:48:00,28.5,22.5,30.26,SSE,166,7.0,8.0,78,0.00,,,0.00,1,WeatherHawk,2013-03-09 05:48:00,
2013-03-08 23:54:00,28.4,21.8,30.25,ESE,105,5.0,7.0,76,0.00,,,0.00,0,WeatherHawk,2013-03-09 05:54:00,
2013-03-08 23:59:00,28.3,22.0,30.25,ESE,112,4.0,7.0,77,0.00,,,0.00,0,WeatherHawk,2013-03-09 05:59:00,